OMRK/RKT METAR and TAF weather

Enter ICAO airport designator
Station Type Date Time Source
OMRK METAR 2021/09/19 14:00 UTC NOAA

OMRK 191400Z 33006KT CAVOK 35/22 Q1004 A2967


Station Type Date Time Source
OMRK Decoded METAR 2021/09/19 14:00 UTC NOAA

Ras Al Khaimah International Airport, United Arab Emirates (OMRK) 25-37N 055-56E 31M
Sep 19, 2021 - 10:00 AM EDT / 2021.09.19 1400 UTC
Wind: from the NNW (330 degrees) at 7 MPH (6 KT):0
Visibility: greater than 7 mile(s):0
Temperature: 95 F (35 C)
Heat index: 102.6 F (39.2 C):1
Dew Point: 71 F (22 C)
Relative Humidity: 46%
Pressure (altimeter): 29.67 in. Hg (1004 hPa)
ob: OMRK 191400Z 33006KT CAVOK 35/22 Q1004 A2967
cycle: 14

Station Type Date Time Source
OMRK TAF 2021/09/19 12:03 UTC NOAA

TAF OMRK 191100Z 1912/2018 34010KT CAVOK
BECMG 1915/1917 VRB02KT
BECMG 2007/2009 32013KT
BECMG 2015/2017 VRB02KT

Example: see airport list